createdAt,value
2022-10-18T06:07:53.362Z,19.27
2022-10-18T06:10:21.346Z,19.37
2022-10-18T06:12:49.293Z,19.21
2022-10-18T06:15:17.689Z,19.28
2022-10-18T06:17:45.645Z,19.34
2022-10-18T06:20:13.488Z,19.21
2022-10-18T06:22:41.379Z,19.14
2022-10-18T06:25:11.330Z,19.38
2022-10-18T06:27:39.544Z,19.22
2022-10-18T06:30:08.849Z,19.21
2022-10-18T06:32:36.747Z,19.20
2022-10-18T06:35:05.318Z,19.22
2022-10-18T06:37:35.608Z,19.20
2022-10-18T06:40:07.302Z,19.33
2022-10-18T06:42:36.553Z,19.33
2022-10-18T06:45:05.471Z,19.19
2022-10-18T06:47:33.356Z,19.33
2022-10-18T06:50:01.215Z,19.35
2022-10-18T06:52:29.468Z,19.36
2022-10-18T06:54:57.495Z,19.27
2022-10-18T06:57:25.437Z,19.15
2022-10-18T06:59:54.958Z,19.18
2022-10-18T07:02:24.932Z,19.32
2022-10-18T07:04:52.749Z,19.27
2022-10-18T07:07:21.398Z,19.19
2022-10-18T07:09:49.181Z,19.34
2022-10-18T07:12:17.997Z,19.28
2022-10-18T07:14:47.307Z,19.20
2022-10-18T07:17:16.972Z,19.30
2022-10-18T07:19:44.973Z,19.22
2022-10-18T07:22:12.939Z,19.15
2022-10-18T07:24:41.017Z,19.27
2022-10-18T07:27:08.927Z,19.26
2022-10-18T07:29:39.503Z,19.28
2022-10-18T07:32:07.842Z,19.10
2022-10-18T07:34:37.259Z,19.29
2022-10-18T07:37:05.231Z,19.27
2022-10-18T07:39:33.243Z,19.27
2022-10-18T07:42:02.286Z,19.27
2022-10-18T07:44:30.413Z,19.20
2022-10-18T07:46:58.326Z,19.23
2022-10-18T07:49:26.455Z,19.22
2022-10-18T07:51:55.683Z,19.11
2022-10-18T07:54:23.759Z,19.14
2022-10-18T07:56:51.568Z,19.07
2022-10-18T07:59:19.593Z,19.27
2022-10-18T08:01:47.541Z,19.34
2022-10-18T08:04:16.499Z,19.25
2022-10-18T08:06:44.649Z,19.53
2022-10-18T08:09:13.924Z,19.55
2022-10-18T08:11:44.911Z,19.72
2022-10-18T08:14:12.842Z,19.80
2022-10-18T08:16:40.699Z,19.83
2022-10-18T08:19:08.765Z,19.82
2022-10-18T08:21:36.745Z,19.94
2022-10-18T08:24:07.317Z,20.25
2022-10-18T08:26:36.644Z,20.33
2022-10-18T08:29:21.173Z,20.26
2022-10-18T08:31:51.446Z,20.15
2022-10-18T08:37:04.945Z,20.27
2022-10-18T08:39:35.576Z,20.38
2022-10-18T08:42:35.807Z,20.49
2022-10-18T08:45:12.695Z,20.63
2022-10-18T08:47:49.342Z,20.46
2022-10-18T08:50:21.076Z,20.66
2022-10-18T08:52:53.953Z,20.56
2022-10-18T08:55:26.390Z,20.76
2022-10-18T08:57:56.478Z,20.62
2022-10-18T09:00:26.679Z,20.60
2022-10-18T09:03:08.903Z,20.76
2022-10-18T09:05:46.708Z,20.82
2022-10-18T09:08:31.440Z,20.93
2022-10-18T09:11:11.186Z,20.98
2022-10-18T09:14:00.922Z,20.89
2022-10-18T09:16:35.904Z,21.06
2022-10-18T09:19:13.116Z,20.86
2022-10-18T09:21:51.195Z,20.93
2022-10-18T09:24:26.872Z,20.95
2022-10-18T09:26:59.288Z,21.10
2022-10-18T09:29:44.475Z,21.02
2022-10-18T09:32:25.566Z,21.09
2022-10-18T09:34:58.203Z,21.18
2022-10-18T09:37:29.290Z,21.11
2022-10-18T09:40:05.188Z,21.15
2022-10-18T09:42:37.223Z,21.42
2022-10-18T09:45:21.753Z,21.37
2022-10-18T09:47:58.591Z,21.24
2022-10-18T09:50:31.376Z,21.38
2022-10-18T09:53:09.291Z,21.35
2022-10-18T09:55:43.882Z,21.41
2022-10-18T09:58:14.941Z,21.47
2022-10-18T10:00:49.977Z,21.21
2022-10-18T10:03:18.088Z,21.26
2022-10-18T10:05:46.333Z,21.33
2022-10-18T10:08:14.487Z,21.45
2022-10-18T10:10:48.365Z,21.56
2022-10-18T10:13:23.229Z,21.53
2022-10-18T10:15:56.429Z,21.56
2022-10-18T10:18:27.326Z,21.57
2022-10-18T10:20:57.683Z,21.61
2022-10-18T10:23:29.842Z,21.56
2022-10-18T10:26:00.935Z,21.57
2022-10-18T10:28:32.388Z,21.61
2022-10-18T10:31:18.988Z,21.73
2022-10-18T10:33:48.572Z,21.78
2022-10-18T10:36:21.737Z,21.86
2022-10-18T10:39:04.743Z,21.85
2022-10-18T10:44:04.168Z,21.83
2022-10-18T10:46:38.215Z,21.91
2022-10-18T10:49:38.529Z,21.92
2022-10-18T10:52:08.449Z,21.83
2022-10-18T10:54:52.098Z,21.97
2022-10-18T10:57:25.198Z,21.94
2022-10-18T10:59:55.114Z,21.96
2022-10-18T11:02:32.173Z,21.91
2022-10-18T11:05:22.344Z,22.19
2022-10-18T11:07:54.256Z,22.22
2022-10-18T11:10:25.946Z,22.34
2022-10-18T11:13:02.459Z,22.11
2022-10-18T11:15:36.628Z,22.29
2022-10-18T11:18:14.497Z,22.31
2022-10-18T11:20:46.686Z,22.19
2022-10-18T11:23:17.017Z,22.29
2022-10-18T11:26:05.721Z,22.30
2022-10-18T11:28:54.249Z,22.35
2022-10-18T11:31:28.882Z,22.31
2022-10-18T11:34:16.343Z,22.42
2022-10-18T11:37:09.723Z,22.51
2022-10-18T11:39:56.032Z,22.38
2022-10-18T11:42:37.798Z,22.44
2022-10-18T11:45:15.774Z,22.36
2022-10-18T11:47:53.697Z,22.57
2022-10-18T11:50:34.076Z,22.57
2022-10-18T11:53:13.283Z,22.65
2022-10-18T11:55:52.094Z,22.59
2022-10-18T11:58:35.151Z,22.70
2022-10-18T12:01:13.917Z,22.74
2022-10-18T12:03:54.996Z,22.77
2022-10-18T12:06:29.373Z,22.88
2022-10-18T12:09:00.878Z,22.87
2022-10-18T12:11:33.098Z,22.88
2022-10-18T12:14:03.875Z,22.80
2022-10-18T12:16:51.451Z,22.89
2022-10-18T12:19:26.791Z,22.84
2022-10-18T12:21:59.135Z,23.07
2022-10-18T12:24:33.212Z,23.04
2022-10-18T12:27:03.576Z,22.98
2022-10-18T12:29:38.839Z,23.02
2022-10-18T12:32:14.779Z,22.89
2022-10-18T12:34:46.527Z,23.07
2022-10-18T12:37:32.711Z,22.92
2022-10-18T12:40:16.796Z,22.98
2022-10-18T12:42:48.167Z,23.18
2022-10-18T12:45:26.703Z,23.23
2022-10-18T12:47:55.880Z,23.12
2022-10-18T12:50:34.006Z,23.17
2022-10-18T12:53:08.045Z,23.16
2022-10-18T12:55:38.432Z,23.08
2022-10-18T12:58:27.373Z,23.10
2022-10-18T13:01:01.798Z,22.99
2022-10-18T13:03:41.571Z,22.80
2022-10-18T13:06:09.925Z,22.80
2022-10-18T13:08:42.807Z,22.87
2022-10-18T13:11:30.348Z,22.82
2022-10-18T13:15:00.555Z,22.74
2022-10-18T13:17:47.581Z,22.79
2022-10-18T13:20:27.719Z,22.78
2022-10-18T13:23:07.116Z,22.61
2022-10-18T13:25:51.607Z,22.64
2022-10-18T13:28:30.275Z,22.49
2022-10-18T13:31:05.243Z,22.55
2022-10-18T13:33:35.771Z,22.48
2022-10-18T13:36:06.758Z,22.64
2022-10-18T13:38:40.738Z,22.77
2022-10-18T13:41:13.081Z,22.53
2022-10-18T13:44:11.480Z,22.78
2022-10-18T13:47:20.907Z,22.75
2022-10-18T13:53:22.955Z,22.81
2022-10-18T13:56:25.340Z,22.83
2022-10-18T13:59:16.752Z,22.88
2022-10-18T14:01:56.815Z,22.88
2022-10-18T14:04:40.207Z,22.95
2022-10-18T14:07:10.202Z,22.96
2022-10-18T14:09:49.789Z,22.96
2022-10-18T14:12:29.965Z,22.73
2022-10-18T14:15:07.029Z,22.72
2022-10-18T14:17:41.150Z,22.76
2022-10-18T14:20:20.849Z,22.63
2022-10-18T14:22:52.567Z,22.52
2022-10-18T14:25:23.537Z,22.49
2022-10-18T14:28:11.380Z,22.61
2022-10-18T14:30:53.813Z,22.60
2022-10-18T14:33:29.784Z,22.59
2022-10-18T14:36:03.740Z,22.62
2022-10-18T14:38:32.073Z,22.65
2022-10-18T14:41:08.527Z,22.53
2022-10-18T14:43:37.851Z,22.52
2022-10-18T14:46:19.731Z,22.52
2022-10-18T14:48:55.597Z,22.46
2022-10-18T14:51:24.742Z,22.34
2022-10-18T14:53:53.900Z,22.25
2022-10-18T14:56:26.750Z,22.22
2022-10-18T14:58:58.183Z,22.24
2022-10-18T15:01:29.448Z,22.47
2022-10-18T15:03:59.744Z,22.31
2022-10-18T15:06:28.089Z,22.38
2022-10-18T15:08:59.424Z,22.49
2022-10-18T15:11:28.330Z,22.28
2022-10-18T15:14:00.479Z,22.33
2022-10-18T15:16:31.256Z,22.15
2022-10-18T15:19:08.735Z,22.48
2022-10-18T15:21:37.831Z,22.50
2022-10-18T15:24:29.109Z,22.49
2022-10-18T15:27:00.996Z,22.26
2022-10-18T15:29:35.213Z,22.45
2022-10-18T15:32:14.219Z,22.47
2022-10-18T15:34:42.303Z,22.44
2022-10-18T15:37:30.501Z,22.51
2022-10-18T15:40:17.816Z,22.48
2022-10-18T15:42:46.489Z,22.42
2022-10-18T15:45:32.717Z,22.48
2022-10-18T15:48:18.653Z,22.49
2022-10-18T15:50:48.573Z,22.41
2022-10-18T15:53:33.456Z,22.39
2022-10-18T15:56:04.116Z,22.31
2022-10-18T15:58:40.883Z,22.38
2022-10-18T16:01:17.619Z,22.43
2022-10-18T16:03:47.709Z,22.25
2022-10-18T16:06:18.310Z,22.38
2022-10-18T16:08:48.980Z,22.26
2022-10-18T16:11:18.962Z,22.20
2022-10-18T16:13:46.948Z,22.28
2022-10-18T16:16:19.429Z,22.23
2022-10-18T16:18:47.349Z,22.19
2022-10-18T16:21:19.782Z,22.16
2022-10-18T16:23:47.991Z,21.87
2022-10-18T16:26:16.945Z,22.08
2022-10-18T16:28:45.819Z,22.00
2022-10-18T16:31:19.325Z,22.03
2022-10-18T16:33:48.271Z,21.97
2022-10-18T16:36:17.667Z,21.86
2022-10-18T16:38:46.490Z,21.86
2022-10-18T16:41:16.057Z,21.77
2022-10-18T16:43:44.912Z,21.82
2022-10-18T16:46:17.922Z,21.77
2022-10-18T16:48:48.761Z,21.51
2022-10-18T16:51:16.742Z,21.42
2022-10-18T16:53:45.102Z,21.40
2022-10-18T16:56:17.497Z,21.36
2022-10-18T16:58:47.782Z,21.50
2022-10-18T17:01:19.207Z,21.33
2022-10-18T17:03:51.415Z,21.36
2022-10-18T17:06:21.355Z,21.27
2022-10-18T17:08:49.622Z,21.32
2022-10-18T17:11:21.598Z,21.16
2022-10-18T17:13:49.583Z,21.07
2022-10-18T17:16:25.833Z,20.99
2022-10-18T17:18:57.606Z,20.97
2022-10-18T17:21:28.893Z,20.93
2022-10-18T17:24:00.616Z,20.89
2022-10-18T17:26:32.503Z,20.82
2022-10-18T17:29:03.219Z,20.75
2022-10-18T17:31:33.693Z,20.62
2022-10-18T17:34:10.816Z,20.59
2022-10-18T17:36:39.381Z,20.64
2022-10-18T17:39:07.486Z,20.77
2022-10-18T17:41:37.236Z,20.71
2022-10-18T17:44:06.046Z,20.52
2022-10-18T17:46:35.738Z,20.61
2022-10-18T17:49:08.218Z,20.46
2022-10-18T17:51:41.270Z,20.27
2022-10-18T17:54:09.610Z,20.23
2022-10-18T17:56:37.681Z,20.15
2022-10-18T17:59:05.957Z,20.14
2022-10-18T18:01:34.459Z,20.24
2022-10-18T18:04:04.690Z,20.00
2022-10-18T18:06:39.258Z,20.09
2022-10-18T18:09:09.241Z,20.11
2022-10-18T18:11:38.732Z,19.99
2022-10-18T18:14:09.141Z,19.98
2022-10-18T18:16:42.569Z,20.03
2022-10-18T18:19:12.634Z,19.89
2022-10-18T18:21:41.727Z,19.72
2022-10-18T18:24:10.922Z,19.89
2022-10-18T18:26:39.888Z,19.80
2022-10-18T18:29:08.705Z,19.79
2022-10-18T18:31:39.899Z,19.77
2022-10-18T18:34:14.752Z,19.83
2022-10-18T18:36:44.107Z,19.67
2022-10-18T18:39:19.904Z,19.65
2022-10-18T18:41:50.015Z,19.46
2022-10-18T18:44:19.384Z,19.65
2022-10-18T18:46:48.039Z,19.56
2022-10-18T18:49:18.742Z,19.61
2022-10-18T18:51:47.234Z,19.40
2022-10-18T18:54:17.334Z,19.36
2022-10-18T18:56:53.071Z,19.24
2022-10-18T18:59:21.569Z,19.24
2022-10-18T19:01:49.745Z,19.07
2022-10-18T19:04:26.493Z,19.09
2022-10-18T19:06:54.599Z,19.18
2022-10-18T19:09:27.029Z,19.06
2022-10-18T19:11:58.110Z,18.96
2022-10-18T19:14:27.125Z,18.94
2022-10-18T19:16:57.636Z,19.05
2022-10-18T19:19:32.378Z,18.83
2022-10-18T19:22:03.766Z,18.94
2022-10-18T19:24:39.377Z,18.81
2022-10-18T19:27:09.846Z,18.92
2022-10-18T19:29:40.401Z,18.83
2022-10-18T19:32:12.287Z,18.88
2022-10-18T19:34:43.976Z,18.82
2022-10-18T19:37:13.798Z,18.64
2022-10-18T19:39:42.269Z,18.67
2022-10-18T19:42:15.722Z,18.64
2022-10-18T19:44:47.228Z,18.59
2022-10-18T19:47:16.105Z,18.75
2022-10-18T19:49:48.813Z,18.80
2022-10-18T19:52:17.016Z,18.52
2022-10-18T19:54:47.119Z,18.60
2022-10-18T19:57:15.683Z,18.57
2022-10-18T19:59:43.854Z,18.52
2022-10-18T20:02:14.734Z,18.54
2022-10-18T20:04:42.774Z,18.53
2022-10-18T20:07:12.720Z,18.35
2022-10-18T20:09:40.864Z,18.40
2022-10-18T20:12:12.274Z,18.26
2022-10-18T20:14:42.309Z,18.38
2022-10-18T20:17:13.831Z,18.23
2022-10-18T20:19:42.298Z,18.24
2022-10-18T20:22:11.729Z,18.41
2022-10-18T20:24:41.833Z,18.08
2022-10-18T20:27:11.486Z,18.19
2022-10-18T20:29:39.552Z,18.04
2022-10-18T20:32:11.653Z,18.20
2022-10-18T20:34:42.655Z,18.16
2022-10-18T20:37:12.185Z,18.05
2022-10-18T20:39:40.910Z,18.04
2022-10-18T20:42:09.560Z,18.04
2022-10-18T20:44:41.044Z,18.05
2022-10-18T20:47:09.786Z,17.98
2022-10-18T20:49:37.824Z,17.89
2022-10-18T20:52:06.207Z,17.85
2022-10-18T20:54:35.828Z,17.78
2022-10-18T20:57:06.930Z,17.84
2022-10-18T20:59:35.840Z,17.75
2022-10-18T21:02:03.833Z,17.84
2022-10-18T21:04:32.305Z,17.84
2022-10-18T21:07:01.149Z,17.83
2022-10-18T21:09:32.031Z,17.69
2022-10-18T21:12:03.828Z,17.75
2022-10-18T21:14:32.175Z,17.61
2022-10-18T21:17:01.691Z,17.72
2022-10-18T21:19:32.437Z,17.65
2022-10-18T21:22:03.729Z,17.59
2022-10-18T21:24:34.763Z,17.41
2022-10-18T21:27:05.892Z,17.42
2022-10-18T21:29:35.261Z,17.46
2022-10-18T21:32:06.682Z,17.41
2022-10-18T21:34:39.725Z,17.32
2022-10-18T21:37:09.432Z,17.42
2022-10-18T21:39:37.691Z,17.32
2022-10-18T21:42:09.527Z,17.43
2022-10-18T21:44:40.406Z,17.32
2022-10-18T21:47:11.860Z,17.31
2022-10-18T21:49:45.043Z,17.31
2022-10-18T21:52:20.148Z,17.24
2022-10-18T21:54:51.370Z,17.25
2022-10-18T21:57:21.355Z,17.34
2022-10-18T21:59:51.684Z,17.22
2022-10-18T22:02:19.816Z,17.24
2022-10-18T22:04:50.082Z,17.08
2022-10-18T22:07:20.731Z,17.04
2022-10-18T22:09:51.963Z,17.13
2022-10-18T22:12:21.438Z,17.27
2022-10-18T22:14:50.008Z,17.18
2022-10-18T22:17:20.982Z,16.90
2022-10-18T22:19:54.090Z,17.02
2022-10-18T22:22:24.863Z,16.99
2022-10-18T22:25:01.005Z,17.01
2022-10-18T22:27:32.504Z,16.83
2022-10-18T22:30:01.776Z,17.05
2022-10-18T22:32:31.266Z,16.80
2022-10-18T22:34:59.246Z,16.84
2022-10-18T22:37:30.664Z,16.90
2022-10-18T22:39:58.933Z,17.03
2022-10-18T22:42:32.120Z,16.89
2022-10-18T22:45:01.222Z,16.74
2022-10-18T22:47:29.162Z,16.85
2022-10-18T22:50:00.252Z,16.88
2022-10-18T22:52:28.296Z,16.94
2022-10-18T22:54:56.908Z,16.96
2022-10-18T22:57:24.997Z,16.90
2022-10-18T22:59:54.621Z,16.90
2022-10-18T23:02:25.971Z,16.71
2022-10-18T23:04:53.979Z,16.88
2022-10-18T23:07:25.140Z,16.90
2022-10-18T23:09:56.243Z,16.60
2022-10-18T23:12:26.760Z,16.68
2022-10-18T23:14:56.633Z,16.54
2022-10-18T23:17:36.130Z,16.62
2022-10-18T23:20:06.915Z,16.58
2022-10-18T23:22:35.884Z,16.44
2022-10-18T23:25:04.688Z,16.43
2022-10-18T23:27:35.410Z,16.57
2022-10-18T23:30:06.285Z,16.35
2022-10-18T23:32:35.123Z,16.46
2022-10-18T23:35:03.784Z,16.36
2022-10-18T23:37:35.568Z,16.41
2022-10-18T23:40:07.959Z,16.43
2022-10-18T23:42:39.456Z,16.44
2022-10-18T23:45:10.932Z,16.54
2022-10-18T23:47:45.319Z,16.36
2022-10-18T23:50:16.599Z,16.44
2022-10-18T23:52:48.127Z,16.60
2022-10-18T23:55:19.522Z,16.33
2022-10-18T23:57:47.690Z,16.54
